Aurora, CO (80015)

12:26 PM MDT on May 29, 2017 (GMT -0600)
TigerDenWX | | Change Station

Elev 5715 ft 39.64 °N, 104.79 °W | Updated 5 seconds ago

Partly Cloudy
Partly Cloudy
69.3 °F
Feels Like 69.3 °F
N
0.0
Wind Variable Wind from North
Gusts 9.0 mph

Today
High -- | Low -- °F
--% Chance of Precip.
Yesterday
High -- | Low -- °F
Precip. -- in
Pressure 30.13 in
Visibility 10.0 miles
Clouds Few 8000 ft
Scattered Clouds 12000 ft
Dew Point 45 °F
Humidity 42%
Rainfall 0.00 in
Snow Depth Not available.
5:34 AM 8:18 PM
Waxing Crescent, 21% visible
METAR KAPA 291753Z 12006KT 10SM FEW080 SCT120 18/04 A3025 RMK AO2 LTG DSNT W SLP201 T01780039 10178 20056 58012
Pressure 30.13 in
Visibility 10.0 miles
Clouds Few 8000 ft
Scattered Clouds 12000 ft
Dew Point 45 °F
Humidity 42%
Rainfall 0.00 in
Snow Depth Not available.
5:34 AM 8:18 PM
Waxing Crescent, 21% visible
METAR KAPA 291753Z 12006KT 10SM FEW080 SCT120 18/04 A3025 RMK AO2 LTG DSNT W SLP201 T01780039 10178 20056 58012

Get Severe Weather Alerts

Thanks for signing up!

Be on the lookout for a verification email in your inbox.

You'll start receiving the daily forecast at 6 AM.

×

10-Day Weather Forecast

Almanac

Astronomy

May. 29, 2017 Rise Set
Actual Time
Civil Twilight
Nautical Twilight
Astronomical Twilight
Moon
Length of Visible Light
Length of Day
Tomorrow will be .
, % of the Moon is Illuminated

Today's Extremes

State Highs State Lows

Community

WunderPhotos

Category 6

Welcome to Category 6. This is the collective home for Weather Underground's featured writeups by Dr. Jeff Masters (right), Bob Henson (left), Chris Burt, and other regular contributors.

Nearby

Air Quality

  Air Quality AQ Index Pollutant
Not available.

Snow Depth

Station Depth Elevation

Earthquake Activity

City Distance Mag. Time & Date
Minimum magnitude displayed is 2.5.

Coastal Water Temperatures

Place Temperature

Stations

Nearby Weather Stations

Station Location Temp. Windchill Dew Point Humidity Wind Precip. Elev Updated Type
                   

Watches & Warnings

There are currently no watches in effect.